createdAt,value
2022-11-21T00:01:33.366Z,6.75
2022-11-21T00:04:00.149Z,7.53
2022-11-21T00:06:27.101Z,8.35
2022-11-21T00:08:55.464Z,10.27
2022-11-21T00:11:22.318Z,7.50
2022-11-21T00:13:49.085Z,7.90
2022-11-21T00:16:16.537Z,7.95
2022-11-21T00:18:44.378Z,6.43
2022-11-21T00:21:16.862Z,7.85
2022-11-21T00:23:44.812Z,7.80
2022-11-21T00:26:13.501Z,7.97
2022-11-21T00:28:40.629Z,7.30
2022-11-21T00:31:07.531Z,7.40
2022-11-21T00:33:38.932Z,6.82
2022-11-21T00:36:09.696Z,7.05
2022-11-21T00:38:36.893Z,7.32
2022-11-21T00:41:03.837Z,7.72
2022-11-21T00:43:30.584Z,7.20
2022-11-21T00:45:58.607Z,6.45
2022-11-21T00:48:25.363Z,6.32
2022-11-21T00:50:52.199Z,7.80
2022-11-21T00:53:18.980Z,7.45
2022-11-21T00:55:45.811Z,7.25
2022-11-21T00:58:12.625Z,8.32
2022-11-21T01:00:39.507Z,6.53
2022-11-21T01:03:06.403Z,7.05
2022-11-21T01:05:33.640Z,8.55
2022-11-21T01:08:00.524Z,7.60
2022-11-21T01:10:27.313Z,8.43
2022-11-21T01:12:54.115Z,7.47
2022-11-21T01:15:20.921Z,8.25
2022-11-21T01:17:47.801Z,8.18
2022-11-21T01:20:14.749Z,7.65
2022-11-21T01:22:41.465Z,7.10
2022-11-21T01:25:08.479Z,7.68
2022-11-21T01:27:35.458Z,8.45
2022-11-21T01:30:02.198Z,7.53
2022-11-21T01:32:28.896Z,7.03
2022-11-21T01:34:55.681Z,7.47
2022-11-21T01:37:22.361Z,7.55
2022-11-21T01:39:49.050Z,7.55
2022-11-21T01:42:15.726Z,7.38
2022-11-21T01:44:47.200Z,7.40
2022-11-21T01:47:13.903Z,7.53
2022-11-21T01:49:42.146Z,8.55
2022-11-21T01:52:12.012Z,8.15
2022-11-21T01:54:44.590Z,8.07
2022-11-21T01:57:35.372Z,8.25
2022-11-21T02:00:13.104Z,10.15
2022-11-21T02:02:46.262Z,12.63
2022-11-21T02:05:20.821Z,8.25
2022-11-21T02:07:49.465Z,8.43
2022-11-21T02:10:17.056Z,8.43
2022-11-21T02:12:46.208Z,7.93
2022-11-21T02:15:13.095Z,7.32
2022-11-21T02:17:39.932Z,8.23
2022-11-21T02:20:09.199Z,8.55
2022-11-21T02:23:13.707Z,7.28
2022-11-21T02:25:42.940Z,7.78
2022-11-21T02:28:14.701Z,8.25
2022-11-21T02:30:42.621Z,7.72
2022-11-21T02:33:11.026Z,8.15
2022-11-21T02:35:37.955Z,8.48
2022-11-21T02:38:22.547Z,6.82
2022-11-21T02:40:54.924Z,6.88
2022-11-21T02:43:28.594Z,8.15
2022-11-21T02:45:56.194Z,8.57
2022-11-21T02:48:22.909Z,7.70
2022-11-21T02:50:49.607Z,7.70
2022-11-21T02:53:18.016Z,7.07
2022-11-21T02:55:45.420Z,8.15
2022-11-21T02:58:12.803Z,8.68
2022-11-21T03:00:41.316Z,6.95
2022-11-21T03:03:08.814Z,7.60
2022-11-21T03:05:35.876Z,7.05
2022-11-21T03:08:03.189Z,8.52
2022-11-21T03:10:29.851Z,8.63
2022-11-21T03:13:01.069Z,8.43
2022-11-21T03:15:34.464Z,7.90
2022-11-21T03:18:02.761Z,9.23
2022-11-21T03:20:30.902Z,7.70
2022-11-21T03:22:57.696Z,7.53
2022-11-21T03:25:24.496Z,7.57
2022-11-21T03:27:53.348Z,6.97
2022-11-21T03:30:24.720Z,8.23
2022-11-21T03:32:54.620Z,7.80
2022-11-21T03:35:21.297Z,7.47
2022-11-21T03:37:48.973Z,6.90
2022-11-21T03:40:15.709Z,8.00
2022-11-21T03:42:42.414Z,8.43
2022-11-21T03:45:09.473Z,6.72
2022-11-21T03:47:36.334Z,7.55
2022-11-21T03:50:03.301Z,7.72
2022-11-21T03:52:30.441Z,7.60
2022-11-21T03:54:57.168Z,8.05
2022-11-21T03:57:23.898Z,7.22
2022-11-21T03:59:50.612Z,7.57
2022-11-21T04:02:17.419Z,9.10
2022-11-21T04:04:44.122Z,7.53
2022-11-21T04:07:10.840Z,6.15
2022-11-21T04:09:37.959Z,6.60
2022-11-21T04:12:07.691Z,7.70
2022-11-21T04:14:34.823Z,8.20
2022-11-21T04:17:01.567Z,7.82
2022-11-21T04:19:28.264Z,7.88
2022-11-21T04:21:54.986Z,8.15
2022-11-21T04:24:21.783Z,7.40
2022-11-21T04:26:48.458Z,9.02
2022-11-21T04:29:15.196Z,8.60
2022-11-21T04:31:41.895Z,7.88
2022-11-21T04:34:08.575Z,7.65
2022-11-21T04:36:35.356Z,8.27
2022-11-21T04:39:02.499Z,7.07
2022-11-21T04:41:29.223Z,8.20
2022-11-21T04:43:55.897Z,7.82
2022-11-21T04:46:22.610Z,8.40
2022-11-21T04:48:49.300Z,7.88
2022-11-21T04:51:16.042Z,8.55
2022-11-21T04:53:43.304Z,8.50
2022-11-21T04:56:10.440Z,8.07
2022-11-21T04:58:37.170Z,8.80
2022-11-21T05:01:08.294Z,8.43
2022-11-21T05:03:35.755Z,9.47
2022-11-21T05:06:03.040Z,8.57
2022-11-21T05:08:29.878Z,8.95
2022-11-21T05:11:15.094Z,9.65
2022-11-21T05:13:41.886Z,8.50
2022-11-21T05:16:08.611Z,9.45
2022-11-21T05:18:35.320Z,9.00
2022-11-21T05:21:02.975Z,8.80
2022-11-21T05:23:29.798Z,7.93
2022-11-21T05:25:56.605Z,8.90
2022-11-21T05:28:23.301Z,9.52
2022-11-21T05:30:49.997Z,8.32
2022-11-21T05:33:16.998Z,8.55
2022-11-21T05:35:44.008Z,8.07
2022-11-21T05:38:10.842Z,8.30
2022-11-21T05:40:37.627Z,9.82
2022-11-21T05:43:22.999Z,10.82
2022-11-21T05:45:50.318Z,8.77
2022-11-21T05:48:17.820Z,10.10
2022-11-21T05:50:48.404Z,9.85
2022-11-21T05:53:16.482Z,10.73
2022-11-21T05:55:43.606Z,10.75
2022-11-21T05:58:10.953Z,10.82
2022-11-21T06:00:38.256Z,11.75
2022-11-21T06:03:25.007Z,12.82
2022-11-21T06:05:51.974Z,12.35
2022-11-21T06:08:19.306Z,12.00
2022-11-21T06:10:46.480Z,9.23
2022-11-21T06:13:22.377Z,10.35
2022-11-21T06:15:53.930Z,10.07
2022-11-21T06:18:21.185Z,11.77
2022-11-21T06:20:47.993Z,10.90
2022-11-21T06:23:14.721Z,10.10
2022-11-21T06:25:42.443Z,9.98
2022-11-21T06:28:10.291Z,10.30
2022-11-21T06:30:37.760Z,10.30
2022-11-21T06:33:05.869Z,10.48
2022-11-21T06:35:32.978Z,10.32
2022-11-21T06:37:59.747Z,10.68
2022-11-21T06:40:26.466Z,9.65
2022-11-21T06:42:53.327Z,10.95
2022-11-21T06:45:20.044Z,9.98
2022-11-21T06:47:46.805Z,10.93
2022-11-21T06:50:13.557Z,10.23
2022-11-21T06:52:40.321Z,10.07
2022-11-21T06:55:07.790Z,11.05
2022-11-21T06:57:34.530Z,9.98
2022-11-21T07:00:01.255Z,10.13
2022-11-21T07:02:27.956Z,10.93
2022-11-21T07:04:54.662Z,10.43
2022-11-21T07:07:21.435Z,9.90
2022-11-21T07:09:48.323Z,11.07
2022-11-21T07:12:33.787Z,11.73
2022-11-21T07:15:00.505Z,12.43
2022-11-21T07:17:27.290Z,10.85
2022-11-21T07:19:54.010Z,10.20
2022-11-21T07:22:20.787Z,11.18
2022-11-21T07:24:47.487Z,10.25
2022-11-21T07:27:14.190Z,11.27
2022-11-21T07:29:40.878Z,9.32
2022-11-21T07:32:07.567Z,10.27
2022-11-21T07:34:34.244Z,10.98
2022-11-21T07:37:01.334Z,11.93
2022-11-21T07:39:28.377Z,12.70
2022-11-21T07:41:55.839Z,11.95
2022-11-21T07:44:22.523Z,12.13
2022-11-21T07:46:49.267Z,12.70
2022-11-21T07:49:15.976Z,12.23
2022-11-21T07:51:42.618Z,13.68
2022-11-21T07:54:09.480Z,15.95
2022-11-21T07:56:36.259Z,13.93
2022-11-21T07:59:03.019Z,13.77
2022-11-21T08:01:29.708Z,12.60
2022-11-21T08:03:56.578Z,13.43
2022-11-21T08:06:23.261Z,15.48
2022-11-21T08:08:54.100Z,17.42
2022-11-21T08:11:21.092Z,14.32
2022-11-21T08:13:47.999Z,17.40
2022-11-21T08:16:14.669Z,18.70
2022-11-21T08:18:41.350Z,16.35
2022-11-21T08:21:08.088Z,17.95
2022-11-21T08:23:34.814Z,19.10
2022-11-21T08:26:01.551Z,17.90
2022-11-21T08:28:28.290Z,16.75
2022-11-21T08:30:55.011Z,17.88
2022-11-21T08:33:23.852Z,16.40
2022-11-21T08:35:50.535Z,16.45
2022-11-21T08:38:17.206Z,16.80
2022-11-21T08:40:43.959Z,16.77
2022-11-21T08:43:10.711Z,17.67
2022-11-21T08:45:39.176Z,17.30
2022-11-21T08:48:11.452Z,15.68
2022-11-21T08:50:38.351Z,17.45
2022-11-21T08:53:05.043Z,16.05
2022-11-21T08:55:31.781Z,16.05
2022-11-21T08:57:58.840Z,14.70
2022-11-21T09:00:26.118Z,15.73
2022-11-21T09:02:52.971Z,16.63
2022-11-21T09:05:19.750Z,17.42
2022-11-21T09:07:47.516Z,16.48
2022-11-21T09:10:14.780Z,16.50
2022-11-21T09:12:41.501Z,15.50
2022-11-21T09:15:40.349Z,15.90
2022-11-21T09:18:08.110Z,15.15
2022-11-21T09:20:40.605Z,14.40
2022-11-21T09:23:08.947Z,15.60
2022-11-21T09:25:35.682Z,13.75
2022-11-21T09:28:03.127Z,12.75
2022-11-21T09:30:29.996Z,12.88
2022-11-21T09:33:04.361Z,14.02
2022-11-21T09:35:31.494Z,13.20
2022-11-21T09:37:58.714Z,15.80
2022-11-21T09:40:25.964Z,14.50
2022-11-21T09:43:01.599Z,15.15
2022-11-21T09:45:41.875Z,14.82
2022-11-21T09:48:15.818Z,13.80
2022-11-21T09:50:54.043Z,13.68
2022-11-21T09:53:24.138Z,14.63
2022-11-21T09:56:06.221Z,14.57
2022-11-21T09:58:40.556Z,13.35
2022-11-21T10:01:14.438Z,14.55
2022-11-21T10:03:47.309Z,14.32
2022-11-21T10:06:21.421Z,13.25
2022-11-21T10:09:06.735Z,13.63
2022-11-21T10:12:19.841Z,14.48
2022-11-21T10:15:07.800Z,12.63
2022-11-21T10:18:24.975Z,14.00
2022-11-21T10:21:15.597Z,12.85
2022-11-21T10:24:20.290Z,13.40
2022-11-21T10:27:31.541Z,12.65
2022-11-21T10:30:04.306Z,13.38
2022-11-21T10:32:40.672Z,12.82
2022-11-21T10:35:19.248Z,11.82
2022-11-21T10:37:51.874Z,14.48
2022-11-21T10:40:48.941Z,11.73
2022-11-21T10:43:53.370Z,10.55
2022-11-21T10:46:20.493Z,11.13
2022-11-21T10:49:00.510Z,11.23
2022-11-21T10:51:53.968Z,12.63
2022-11-21T10:54:32.779Z,10.57
2022-11-21T10:57:14.586Z,11.50
2022-11-21T10:59:41.310Z,11.10
2022-11-21T11:02:13.943Z,10.20
2022-11-21T11:04:47.600Z,12.07
2022-11-21T11:07:25.600Z,10.38
2022-11-21T11:09:53.350Z,10.10
2022-11-21T11:12:25.716Z,9.68
2022-11-21T11:14:56.072Z,11.63
2022-11-21T11:17:28.619Z,9.98
2022-11-21T11:20:33.293Z,11.18
2022-11-21T11:23:00.314Z,10.10
2022-11-21T11:25:27.037Z,10.48
2022-11-21T11:27:53.791Z,10.50
2022-11-21T11:30:21.242Z,11.43
2022-11-21T11:32:48.133Z,10.25
2022-11-21T11:35:17.678Z,9.88
2022-11-21T11:38:03.576Z,8.25
2022-11-21T11:40:37.588Z,9.02
2022-11-21T11:43:59.252Z,8.30
2022-11-21T11:46:59.040Z,9.85
2022-11-21T11:49:53.328Z,9.35
2022-11-21T11:52:24.461Z,9.60
2022-11-21T11:55:03.467Z,9.00
2022-11-21T11:57:32.530Z,9.63
2022-11-21T12:00:27.556Z,8.45
2022-11-21T12:02:58.600Z,8.43
2022-11-21T12:05:27.233Z,8.13
2022-11-21T12:11:15.191Z,8.55
2022-11-21T12:13:43.768Z,7.28
2022-11-21T12:16:14.362Z,7.72
2022-11-21T12:19:05.799Z,7.10
2022-11-21T12:21:32.622Z,8.15
2022-11-21T12:24:03.050Z,6.78
2022-11-21T12:26:38.434Z,8.20
2022-11-21T12:29:32.359Z,7.47
2022-11-21T12:32:08.003Z,6.47
2022-11-21T12:35:05.487Z,6.75
2022-11-21T12:38:14.282Z,7.32
2022-11-21T12:40:51.956Z,7.60
2022-11-21T12:43:59.532Z,7.53
2022-11-21T12:46:42.518Z,9.13
2022-11-21T12:49:33.702Z,8.35
2022-11-21T12:52:51.936Z,7.97
2022-11-21T12:55:35.377Z,7.85
2022-11-21T12:58:33.015Z,7.82
2022-11-21T13:01:02.880Z,7.50
2022-11-21T13:04:01.911Z,8.27
2022-11-21T13:06:33.623Z,8.75
2022-11-21T13:09:05.566Z,7.53
2022-11-21T13:12:01.527Z,7.32
2022-11-21T13:14:37.207Z,7.53
2022-11-21T13:17:12.923Z,6.97
2022-11-21T13:20:13.433Z,7.55
2022-11-21T13:22:40.121Z,7.65
2022-11-21T13:25:10.150Z,7.18
2022-11-21T13:27:41.778Z,6.40
2022-11-21T13:30:15.119Z,6.85
2022-11-21T13:32:47.124Z,7.45
2022-11-21T13:35:19.437Z,6.57
2022-11-21T13:37:52.474Z,7.35
2022-11-21T13:40:31.054Z,7.28
2022-11-21T13:45:59.185Z,6.50
2022-11-21T13:48:30.488Z,8.20
2022-11-21T13:51:15.243Z,8.07
2022-11-21T13:54:03.903Z,7.78
2022-11-21T13:57:01.859Z,7.18
2022-11-21T13:59:40.708Z,7.43
2022-11-21T14:02:26.032Z,6.93
2022-11-21T14:05:17.797Z,7.50
2022-11-21T14:07:45.415Z,7.22
2022-11-21T14:10:42.767Z,7.05
2022-11-21T14:13:23.606Z,7.40
2022-11-21T14:16:05.731Z,7.10
2022-11-21T14:18:33.314Z,7.55
2022-11-21T14:21:01.070Z,7.55
2022-11-21T14:23:32.418Z,7.78
2022-11-21T14:26:13.778Z,7.80
2022-11-21T14:28:40.533Z,8.02
2022-11-21T14:31:09.549Z,7.82
2022-11-21T14:33:37.494Z,8.88
2022-11-21T14:36:09.503Z,7.88
2022-11-21T14:39:02.105Z,7.75
2022-11-21T14:41:37.264Z,8.45
2022-11-21T14:44:07.157Z,8.57
2022-11-21T14:46:36.461Z,7.68
2022-11-21T14:49:18.660Z,6.88
2022-11-21T14:54:22.052Z,8.30
2022-11-21T14:56:55.756Z,7.28
2022-11-21T14:59:26.352Z,7.70
2022-11-21T15:02:17.928Z,7.93
2022-11-21T15:04:46.442Z,8.33
2022-11-21T15:07:31.310Z,10.32
2022-11-21T15:10:28.753Z,8.80
2022-11-21T15:12:48.355Z,11.27
2022-11-21T15:15:38.847Z,10.18
2022-11-21T15:18:26.882Z,8.30
2022-11-21T15:21:01.448Z,8.18
2022-11-21T15:23:30.595Z,8.90
2022-11-21T15:26:01.252Z,9.20
2022-11-21T15:28:29.826Z,8.05
2022-11-21T15:31:17.094Z,9.00
2022-11-21T15:34:19.696Z,9.18
2022-11-21T15:36:44.997Z,8.73
2022-11-21T15:39:21.771Z,8.82
2022-11-21T15:41:48.515Z,9.50
2022-11-21T15:44:20.264Z,9.40
2022-11-21T15:46:50.628Z,9.93
2022-11-21T15:49:33.770Z,9.55
2022-11-21T15:52:09.743Z,9.25
2022-11-21T15:54:38.060Z,9.80
2022-11-21T15:57:04.720Z,11.10
2022-11-21T15:59:31.869Z,11.50
2022-11-21T16:01:59.029Z,9.50
2022-11-21T16:04:26.395Z,11.35
2022-11-21T16:06:56.045Z,11.13
2022-11-21T16:09:22.957Z,10.25
2022-11-21T16:11:49.707Z,10.50
2022-11-21T16:14:18.530Z,10.05
2022-11-21T16:16:47.099Z,10.82
2022-11-21T16:19:15.349Z,11.00
2022-11-21T16:21:42.536Z,9.98
2022-11-21T16:24:09.439Z,11.57
2022-11-21T16:26:36.162Z,12.35
2022-11-21T16:29:05.316Z,10.93
2022-11-21T16:31:32.683Z,10.38
2022-11-21T16:34:00.621Z,11.95
2022-11-21T16:36:29.438Z,10.82
2022-11-21T16:39:00.594Z,11.13
2022-11-21T16:41:28.782Z,10.75
2022-11-21T16:43:55.856Z,11.02
2022-11-21T16:46:24.675Z,11.63
2022-11-21T16:49:00.491Z,10.90
2022-11-21T16:51:28.611Z,10.90
2022-11-21T16:53:57.537Z,9.95
2022-11-21T16:56:24.857Z,10.50
2022-11-21T16:58:51.762Z,10.30
2022-11-21T17:01:24.325Z,11.30
2022-11-21T17:03:51.571Z,9.40
2022-11-21T17:06:21.359Z,10.25
2022-11-21T17:08:48.099Z,11.57
2022-11-21T17:11:16.192Z,9.80
2022-11-21T17:13:44.671Z,11.15
2022-11-21T17:16:12.625Z,9.75
2022-11-21T17:18:40.545Z,9.93
2022-11-21T17:21:09.702Z,9.48
2022-11-21T17:23:38.265Z,11.93
2022-11-21T17:26:07.146Z,10.05
2022-11-21T17:28:34.941Z,9.20
2022-11-21T17:31:13.241Z,10.82
2022-11-21T17:33:40.793Z,10.27
2022-11-21T17:36:14.438Z,11.45
2022-11-21T17:38:42.975Z,12.77
2022-11-21T17:41:12.030Z,12.70
2022-11-21T17:43:39.126Z,13.00
2022-11-21T17:46:10.171Z,11.52
2022-11-21T17:48:38.127Z,13.70
2022-11-21T17:51:10.524Z,10.52
2022-11-21T17:53:41.352Z,12.85
2022-11-21T17:56:11.280Z,12.07
2022-11-21T17:58:38.001Z,12.10
2022-11-21T18:01:06.685Z,12.65
2022-11-21T18:03:35.609Z,12.60
2022-11-21T18:06:07.974Z,12.60
2022-11-21T18:08:39.936Z,12.68
2022-11-21T18:11:08.254Z,11.85
2022-11-21T18:13:36.323Z,12.27
2022-11-21T18:16:08.168Z,12.50
2022-11-21T18:18:36.103Z,11.30
2022-11-21T18:21:13.952Z,12.38
2022-11-21T18:23:40.665Z,12.30
2022-11-21T18:26:14.505Z,13.50
2022-11-21T18:28:42.075Z,11.75
2022-11-21T18:31:14.066Z,12.73
2022-11-21T18:33:41.948Z,12.73
2022-11-21T18:36:10.736Z,12.95
2022-11-21T18:38:48.716Z,12.80
2022-11-21T18:41:25.805Z,10.95
2022-11-21T18:44:00.269Z,13.63
2022-11-21T18:46:28.881Z,12.52
2022-11-21T18:49:06.319Z,13.15
2022-11-21T18:51:34.826Z,13.82
2022-11-21T18:54:05.241Z,11.98
2022-11-21T18:56:32.333Z,11.95
2022-11-21T18:58:59.474Z,12.77
2022-11-21T19:01:29.225Z,15.13
2022-11-21T19:03:56.660Z,13.82
2022-11-21T19:06:25.594Z,12.75
2022-11-21T19:08:54.106Z,14.50
2022-11-21T19:11:24.188Z,13.48
2022-11-21T19:13:51.418Z,12.15
2022-11-21T19:16:20.379Z,12.20
2022-11-21T19:19:05.505Z,12.35
2022-11-21T19:21:39.591Z,12.57
2022-11-21T19:24:07.151Z,13.07
2022-11-21T19:26:33.880Z,12.80
2022-11-21T19:29:00.947Z,12.07
2022-11-21T19:31:27.831Z,15.55
2022-11-21T19:33:54.529Z,14.10
2022-11-21T19:36:22.975Z,14.27
2022-11-21T19:38:51.276Z,15.45
2022-11-21T19:41:20.105Z,12.93
2022-11-21T19:43:51.818Z,12.95
2022-11-21T19:46:21.466Z,14.60
2022-11-21T19:48:49.735Z,12.82
2022-11-21T19:51:17.881Z,13.55
2022-11-21T19:53:45.390Z,14.25
2022-11-21T19:56:14.916Z,14.18
2022-11-21T19:58:42.558Z,13.88
2022-11-21T20:01:14.507Z,15.32
2022-11-21T20:03:43.539Z,14.70
2022-11-21T20:06:31.127Z,14.70
2022-11-21T20:08:59.884Z,13.02
2022-11-21T20:11:28.356Z,15.07
2022-11-21T20:13:55.363Z,14.07
2022-11-21T20:16:31.927Z,16.83
2022-11-21T20:19:01.066Z,16.67
2022-11-21T20:21:28.563Z,15.88
2022-11-21T20:23:55.424Z,17.13
2022-11-21T20:26:23.261Z,15.48
2022-11-21T20:28:50.739Z,17.98
2022-11-21T20:31:23.158Z,16.35
2022-11-21T20:33:52.152Z,18.05
2022-11-21T20:36:24.526Z,16.88
2022-11-21T20:38:56.305Z,17.48
2022-11-21T20:41:25.313Z,15.77
2022-11-21T20:46:43.426Z,14.48
2022-11-21T20:49:10.666Z,16.42
2022-11-21T20:54:24.076Z,14.15
2022-11-21T20:56:50.862Z,16.15
2022-11-21T20:59:17.604Z,17.15
2022-11-21T21:01:44.381Z,15.77
2022-11-21T21:04:12.019Z,13.30
2022-11-21T21:06:39.501Z,15.00
2022-11-21T21:09:06.516Z,16.52
2022-11-21T21:14:21.242Z,15.98
2022-11-21T21:16:47.967Z,13.93
2022-11-21T21:19:14.712Z,14.15
2022-11-21T21:21:41.614Z,14.52
2022-11-21T21:24:10.913Z,15.13
2022-11-21T21:26:44.272Z,15.00
2022-11-21T21:29:13.752Z,16.20
2022-11-21T21:31:44.091Z,15.02
2022-11-21T21:34:16.530Z,14.77
2022-11-21T21:36:43.207Z,15.90
2022-11-21T21:39:09.882Z,15.30
2022-11-21T21:41:39.817Z,14.95
2022-11-21T21:44:06.883Z,15.32
2022-11-21T21:46:33.653Z,15.15
2022-11-21T21:49:00.354Z,14.48
2022-11-21T21:51:30.198Z,15.77
2022-11-21T21:53:58.901Z,14.40
2022-11-21T21:56:27.587Z,16.45
2022-11-21T21:58:54.773Z,18.35
2022-11-21T22:01:24.414Z,16.63
2022-11-21T22:03:56.623Z,16.10
2022-11-21T22:06:23.690Z,17.10
2022-11-21T22:08:50.760Z,14.57
2022-11-21T22:11:24.320Z,17.00
2022-11-21T22:13:59.698Z,16.25
2022-11-21T22:16:26.703Z,15.68
2022-11-21T22:18:54.029Z,16.33
2022-11-21T22:21:28.453Z,17.10
2022-11-21T22:24:23.518Z,16.65
2022-11-21T22:26:43.581Z,13.93
2022-11-21T22:29:10.338Z,13.90
2022-11-21T22:31:37.473Z,13.18
2022-11-21T22:34:04.541Z,14.70
2022-11-21T22:36:31.287Z,14.15
2022-11-21T22:38:57.960Z,14.38
2022-11-21T22:41:26.833Z,12.10
2022-11-21T22:43:55.779Z,13.68
2022-11-21T22:46:24.329Z,14.40
2022-11-21T22:48:51.275Z,12.40
2022-11-21T22:51:20.685Z,14.43
2022-11-21T22:53:48.523Z,12.85
2022-11-21T22:56:17.604Z,13.10
2022-11-21T22:58:45.708Z,14.73
2022-11-21T23:01:23.945Z,13.77
2022-11-21T23:03:51.466Z,12.80
2022-11-21T23:06:20.285Z,13.52
2022-11-21T23:08:48.013Z,13.45
2022-11-21T23:11:22.593Z,12.43
2022-11-21T23:13:49.390Z,13.00
2022-11-21T23:16:17.009Z,14.55
2022-11-21T23:18:43.910Z,14.38
2022-11-21T23:21:11.951Z,13.25
2022-11-21T23:23:39.062Z,13.93
2022-11-21T23:26:06.623Z,13.48
2022-11-21T23:28:33.979Z,12.40
2022-11-21T23:31:01.151Z,12.13
2022-11-21T23:33:28.073Z,12.88
2022-11-21T23:35:54.893Z,15.20
2022-11-21T23:38:21.897Z,13.10
2022-11-21T23:40:49.680Z,15.13
2022-11-21T23:43:17.512Z,13.20
2022-11-21T23:45:45.309Z,12.07
2022-11-21T23:48:12.078Z,14.32
2022-11-21T23:50:38.812Z,13.35
2022-11-21T23:53:05.633Z,13.90
2022-11-21T23:55:32.458Z,13.75
2022-11-21T23:57:59.520Z,13.38
